sensor_id;sensor_type;location;lat;lon;timestamp;temperature;humidity
12849;DHT22;6493;50.928;7.172;2023-04-20T00:00:03;5.40;35.10
12849;DHT22;6493;50.928;7.172;2023-04-20T00:05:14;5.40;35.20
12849;DHT22;6493;50.928;7.172;2023-04-20T00:10:18;5.30;35.20
12849;DHT22;6493;50.928;7.172;2023-04-20T00:15:22;5.30;35.30
12849;DHT22;6493;50.928;7.172;2023-04-20T00:20:25;5.20;35.30
12849;DHT22;6493;50.928;7.172;2023-04-20T00:25:29;5.20;35.40
12849;DHT22;6493;50.928;7.172;2023-04-20T00:30:34;5.20;35.50
12849;DHT22;6493;50.928;7.172;2023-04-20T00:35:38;5.20;35.50
12849;DHT22;6493;50.928;7.172;2023-04-20T00:40:42;5.20;35.50
12849;DHT22;6493;50.928;7.172;2023-04-20T00:45:50;5.20;35.50
12849;DHT22;6493;50.928;7.172;2023-04-20T00:50:54;5.20;35.60
12849;DHT22;6493;50.928;7.172;2023-04-20T00:55:58;5.20;35.70
12849;DHT22;6493;50.928;7.172;2023-04-20T01:01:04;5.20;35.60
12849;DHT22;6493;50.928;7.172;2023-04-20T01:06:08;5.20;35.80
12849;DHT22;6493;50.928;7.172;2023-04-20T01:11:11;5.20;35.70
12849;DHT22;6493;50.928;7.172;2023-04-20T01:16:16;5.20;35.80
12849;DHT22;6493;50.928;7.172;2023-04-20T01:21:21;5.20;35.80
12849;DHT22;6493;50.928;7.172;2023-04-20T01:26:27;5.20;35.80
12849;DHT22;6493;50.928;7.172;2023-04-20T01:31:30;5.20;35.90
12849;DHT22;6493;50.928;7.172;2023-04-20T01:36:34;5.10;35.90
12849;DHT22;6493;50.928;7.172;2023-04-20T01:41:38;5.10;36.10
12849;DHT22;6493;50.928;7.172;2023-04-20T01:46:42;5.00;35.90
12849;DHT22;6493;50.928;7.172;2023-04-20T01:51:45;5.00;36.00
12849;DHT22;6493;50.928;7.172;2023-04-20T01:56:50;5.00;36.30
12849;DHT22;6493;50.928;7.172;2023-04-20T02:01:53;5.00;36.30
12849;DHT22;6493;50.928;7.172;2023-04-20T02:06:56;5.00;36.40
12849;DHT22;6493;50.928;7.172;2023-04-20T02:12:00;5.00;36.80
12849;DHT22;6493;50.928;7.172;2023-04-20T02:17:04;4.90;36.50
12849;DHT22;6493;50.928;7.172;2023-04-20T02:22:08;4.90;36.60
12849;DHT22;6493;50.928;7.172;2023-04-20T02:27:13;5.00;36.90
12849;DHT22;6493;50.928;7.172;2023-04-20T02:32:16;5.00;36.80
12849;DHT22;6493;50.928;7.172;2023-04-20T02:37:19;5.00;36.80
12849;DHT22;6493;50.928;7.172;2023-04-20T02:42:24;5.00;36.90
12849;DHT22;6493;50.928;7.172;2023-04-20T02:47:29;5.00;36.90
12849;DHT22;6493;50.928;7.172;2023-04-20T02:52:32;5.10;37.60
12849;DHT22;6493;50.928;7.172;2023-04-20T02:57:38;5.00;37.00
12849;DHT22;6493;50.928;7.172;2023-04-20T03:02:41;5.10;37.10
12849;DHT22;6493;50.928;7.172;2023-04-20T03:07:46;5.10;37.10
12849;DHT22;6493;50.928;7.172;2023-04-20T03:12:50;5.10;37.10
12849;DHT22;6493;50.928;7.172;2023-04-20T03:18:06;5.10;37.20
12849;DHT22;6493;50.928;7.172;2023-04-20T03:23:10;5.10;37.20
12849;DHT22;6493;50.928;7.172;2023-04-20T03:28:14;5.10;37.30
12849;DHT22;6493;50.928;7.172;2023-04-20T03:33:18;5.00;37.30
12849;DHT22;6493;50.928;7.172;2023-04-20T03:38:22;5.00;37.40
12849;DHT22;6493;50.928;7.172;2023-04-20T03:43:28;5.00;37.50
12849;DHT22;6493;50.928;7.172;2023-04-20T03:48:32;4.90;37.50
12849;DHT22;6493;50.928;7.172;2023-04-20T03:53:35;4.90;37.50
12849;DHT22;6493;50.928;7.172;2023-04-20T03:58:47;4.90;37.50
12849;DHT22;6493;50.928;7.172;2023-04-20T04:03:54;4.90;37.70
12849;DHT22;6493;50.928;7.172;2023-04-20T04:08:59;4.80;37.60
12849;DHT22;6493;50.928;7.172;2023-04-20T04:14:05;4.80;37.70
12849;DHT22;6493;50.928;7.172;2023-04-20T04:19:11;4.80;38.90
12849;DHT22;6493;50.928;7.172;2023-04-20T04:24:15;4.70;38.60
12849;DHT22;6493;50.928;7.172;2023-04-20T04:29:29;4.60;39.10
12849;DHT22;6493;50.928;7.172;2023-04-20T04:34:39;4.50;39.10
12849;DHT22;6493;50.928;7.172;2023-04-20T04:39:45;4.40;39.10
12849;DHT22;6493;50.928;7.172;2023-04-20T04:45:05;4.30;39.30
12849;DHT22;6493;50.928;7.172;2023-04-20T04:50:11;4.20;39.10
12849;DHT22;6493;50.928;7.172;2023-04-20T04:55:14;4.20;39.10
12849;DHT22;6493;50.928;7.172;2023-04-20T05:00:19;4.20;39.20
12849;DHT22;6493;50.928;7.172;2023-04-20T05:05:23;4.20;39.30
12849;DHT22;6493;50.928;7.172;2023-04-20T05:10:27;4.20;39.30
12849;DHT22;6493;50.928;7.172;2023-04-20T05:15:32;4.30;39.50
12849;DHT22;6493;50.928;7.172;2023-04-20T05:20:35;4.40;39.70
12849;DHT22;6493;50.928;7.172;2023-04-20T05:25:38;4.40;39.70
12849;DHT22;6493;50.928;7.172;2023-04-20T05:30:43;4.40;39.70
12849;DHT22;6493;50.928;7.172;2023-04-20T05:35:46;4.40;39.70
12849;DHT22;6493;50.928;7.172;2023-04-20T05:40:50;4.40;39.80
12849;DHT22;6493;50.928;7.172;2023-04-20T05:45:54;4.40;40.60
12849;DHT22;6493;50.928;7.172;2023-04-20T05:50:57;4.30;40.70
12849;DHT22;6493;50.928;7.172;2023-04-20T05:56:00;4.30;41.10
12849;DHT22;6493;50.928;7.172;2023-04-20T06:01:06;4.20;42.00
12849;DHT22;6493;50.928;7.172;2023-04-20T06:06:12;4.10;42.80
12849;DHT22;6493;50.928;7.172;2023-04-20T06:11:17;4.00;42.00
12849;DHT22;6493;50.928;7.172;2023-04-20T06:16:22;3.90;41.70
12849;DHT22;6493;50.928;7.172;2023-04-20T06:21:26;3.90;41.50
12849;DHT22;6493;50.928;7.172;2023-04-20T06:26:29;3.90;41.60
12849;DHT22;6493;50.928;7.172;2023-04-20T06:31:33;3.80;42.30
12849;DHT22;6493;50.928;7.172;2023-04-20T06:36:36;3.80;42.90
12849;DHT22;6493;50.928;7.172;2023-04-20T06:41:43;3.80;42.90
12849;DHT22;6493;50.928;7.172;2023-04-20T06:46:49;3.80;43.10
12849;DHT22;6493;50.928;7.172;2023-04-20T06:51:53;3.80;43.10
12849;DHT22;6493;50.928;7.172;2023-04-20T06:56:56;3.80;43.70
12849;DHT22;6493;50.928;7.172;2023-04-20T07:02:00;3.80;45.40
12849;DHT22;6493;50.928;7.172;2023-04-20T07:07:03;3.80;43.80
12849;DHT22;6493;50.928;7.172;2023-04-20T07:12:07;3.80;44.50
12849;DHT22;6493;50.928;7.172;2023-04-20T07:17:13;3.90;44.10
12849;DHT22;6493;50.928;7.172;2023-04-20T07:22:16;4.00;45.10
12849;DHT22;6493;50.928;7.172;2023-04-20T07:27:19;4.00;46.80
12849;DHT22;6493;50.928;7.172;2023-04-20T07:32:24;4.10;45.20
12849;DHT22;6493;50.928;7.172;2023-04-20T07:37:27;4.10;45.30
12849;DHT22;6493;50.928;7.172;2023-04-20T07:42:31;4.20;45.00
12849;DHT22;6493;50.928;7.172;2023-04-20T07:47:36;4.30;45.10
12849;DHT22;6493;50.928;7.172;2023-04-20T07:52:39;4.40;45.50
12849;DHT22;6493;50.928;7.172;2023-04-20T07:57:44;4.40;46.30
12849;DHT22;6493;50.928;7.172;2023-04-20T08:02:48;4.50;45.40
12849;DHT22;6493;50.928;7.172;2023-04-20T08:07:52;4.60;45.90
12849;DHT22;6493;50.928;7.172;2023-04-20T08:13:04;4.60;45.40
12849;DHT22;6493;50.928;7.172;2023-04-20T08:18:18;4.60;45.50
12849;DHT22;6493;50.928;7.172;2023-04-20T08:23:22;4.70;46.00
12849;DHT22;6493;50.928;7.172;2023-04-20T08:28:28;4.70;45.30
12849;DHT22;6493;50.928;7.172;2023-04-20T08:33:36;4.80;46.40
12849;DHT22;6493;50.928;7.172;2023-04-20T08:38:39;4.80;46.30
12849;DHT22;6493;50.928;7.172;2023-04-20T08:43:42;4.90;47.70
12849;DHT22;6493;50.928;7.172;2023-04-20T08:48:47;4.90;47.10
12849;DHT22;6493;50.928;7.172;2023-04-20T08:53:51;4.90;47.40
12849;DHT22;6493;50.928;7.172;2023-04-20T08:58:57;4.80;47.70
12849;DHT22;6493;50.928;7.172;2023-04-20T09:04:02;4.80;47.80
12849;DHT22;6493;50.928;7.172;2023-04-20T09:09:17;4.70;47.20
12849;DHT22;6493;50.928;7.172;2023-04-20T09:14:20;4.70;48.30
12849;DHT22;6493;50.928;7.172;2023-04-20T09:19:26;4.80;47.70
12849;DHT22;6493;50.928;7.172;2023-04-20T09:24:30;5.10;47.50
12849;DHT22;6493;50.928;7.172;2023-04-20T09:29:34;5.20;48.40
12849;DHT22;6493;50.928;7.172;2023-04-20T09:34:43;5.10;49.30
12849;DHT22;6493;50.928;7.172;2023-04-20T09:39:46;5.00;48.80
12849;DHT22;6493;50.928;7.172;2023-04-20T09:44:50;4.90;48.30
12849;DHT22;6493;50.928;7.172;2023-04-20T09:49:55;5.00;49.30
12849;DHT22;6493;50.928;7.172;2023-04-20T09:55:09;5.20;49.40
12849;DHT22;6493;50.928;7.172;2023-04-20T10:00:13;5.30;49.70
12849;DHT22;6493;50.928;7.172;2023-04-20T10:05:18;5.60;50.20
12849;DHT22;6493;50.928;7.172;2023-04-20T10:10:23;5.80;49.70
12849;DHT22;6493;50.928;7.172;2023-04-20T10:15:36;6.00;49.80
12849;DHT22;6493;50.928;7.172;2023-04-20T10:20:41;6.10;49.00
12849;DHT22;6493;50.928;7.172;2023-04-20T10:25:55;6.10;48.10
12849;DHT22;6493;50.928;7.172;2023-04-20T10:30:58;6.10;48.30
12849;DHT22;6493;50.928;7.172;2023-04-20T10:36:04;6.20;48.50
12849;DHT22;6493;50.928;7.172;2023-04-20T10:41:08;6.30;48.20
12849;DHT22;6493;50.928;7.172;2023-04-20T10:46:20;6.20;48.10
12849;DHT22;6493;50.928;7.172;2023-04-20T10:51:24;6.10;47.50
12849;DHT22;6493;50.928;7.172;2023-04-20T10:56:35;6.10;47.90
12849;DHT22;6493;50.928;7.172;2023-04-20T11:01:39;6.20;48.60
12849;DHT22;6493;50.928;7.172;2023-04-20T11:06:45;6.40;48.60
12849;DHT22;6493;50.928;7.172;2023-04-20T11:11:58;6.50;47.80
12849;DHT22;6493;50.928;7.172;2023-04-20T11:17:03;6.50;47.80
12849;DHT22;6493;50.928;7.172;2023-04-20T11:22:08;6.50;48.40
12849;DHT22;6493;50.928;7.172;2023-04-20T11:27:19;6.60;48.70
12849;DHT22;6493;50.928;7.172;2023-04-20T11:32:23;6.70;48.20
12849;DHT22;6493;50.928;7.172;2023-04-20T11:37:28;6.80;47.40
12849;DHT22;6493;50.928;7.172;2023-04-20T11:42:32;6.80;47.10
12849;DHT22;6493;50.928;7.172;2023-04-20T11:47:35;6.80;47.00
12849;DHT22;6493;50.928;7.172;2023-04-20T11:52:40;6.70;47.30
12849;DHT22;6493;50.928;7.172;2023-04-20T11:57:43;6.70;46.80
12849;DHT22;6493;50.928;7.172;2023-04-20T12:02:50;6.70;47.40
12849;DHT22;6493;50.928;7.172;2023-04-20T12:07:55;6.90;47.20
12849;DHT22;6493;50.928;7.172;2023-04-20T12:12:58;7.00;47.00
12849;DHT22;6493;50.928;7.172;2023-04-20T12:18:02;7.10;46.60
12849;DHT22;6493;50.928;7.172;2023-04-20T12:23:07;7.20;46.40
12849;DHT22;6493;50.928;7.172;2023-04-20T12:28:10;7.30;45.90
12849;DHT22;6493;50.928;7.172;2023-04-20T12:33:13;7.40;46.10
12849;DHT22;6493;50.928;7.172;2023-04-20T12:38:18;7.60;46.30
12849;DHT22;6493;50.928;7.172;2023-04-20T12:43:21;7.70;46.40
12849;DHT22;6493;50.928;7.172;2023-04-20T12:48:24;8.00;45.80
12849;DHT22;6493;50.928;7.172;2023-04-20T12:53:28;8.20;46.50
12849;DHT22;6493;50.928;7.172;2023-04-20T12:58:32;8.50;45.50
12849;DHT22;6493;50.928;7.172;2023-04-20T13:03:35;8.70;44.90
12849;DHT22;6493;50.928;7.172;2023-04-20T13:08:40;8.90;44.90
12849;DHT22;6493;50.928;7.172;2023-04-20T13:13:43;9.00;44.20
12849;DHT22;6493;50.928;7.172;2023-04-20T13:18:46;9.00;42.90
12849;DHT22;6493;50.928;7.172;2023-04-20T13:23:51;8.70;43.10
12849;DHT22;6493;50.928;7.172;2023-04-20T13:28:57;8.50;42.30
12849;DHT22;6493;50.928;7.172;2023-04-20T13:34:00;8.40;42.70
12849;DHT22;6493;50.928;7.172;2023-04-20T13:39:05;8.40;43.00
12849;DHT22;6493;50.928;7.172;2023-04-20T13:44:08;8.60;42.70
12849;DHT22;6493;50.928;7.172;2023-04-20T13:49:16;8.70;42.10
12849;DHT22;6493;50.928;7.172;2023-04-20T13:54:24;8.70;41.90
12849;DHT22;6493;50.928;7.172;2023-04-20T13:59:28;8.80;42.10
12849;DHT22;6493;50.928;7.172;2023-04-20T14:04:31;8.70;41.80
12849;DHT22;6493;50.928;7.172;2023-04-20T14:09:36;8.60;42.50
12849;DHT22;6493;50.928;7.172;2023-04-20T14:14:39;8.60;41.90
12849;DHT22;6493;50.928;7.172;2023-04-20T14:19:42;8.50;42.50
12849;DHT22;6493;50.928;7.172;2023-04-20T14:24:47;8.50;42.50
12849;DHT22;6493;50.928;7.172;2023-04-20T14:29:50;8.50;42.70
12849;DHT22;6493;50.928;7.172;2023-04-20T14:34:53;8.60;42.30
12849;DHT22;6493;50.928;7.172;2023-04-20T14:39:58;8.60;42.70
12849;DHT22;6493;50.928;7.172;2023-04-20T14:45:01;8.80;42.90
12849;DHT22;6493;50.928;7.172;2023-04-20T14:50:05;9.00;42.00
12849;DHT22;6493;50.928;7.172;2023-04-20T14:55:10;9.10;42.50
12849;DHT22;6493;50.928;7.172;2023-04-20T15:00:15;9.30;42.30
12849;DHT22;6493;50.928;7.172;2023-04-20T15:05:19;9.30;42.20
12849;DHT22;6493;50.928;7.172;2023-04-20T15:10:24;9.30;41.70
12849;DHT22;6493;50.928;7.172;2023-04-20T15:15:27;9.20;41.70
12849;DHT22;6493;50.928;7.172;2023-04-20T15:20:50;9.20;42.00
12849;DHT22;6493;50.928;7.172;2023-04-20T15:25:54;9.20;42.00
12849;DHT22;6493;50.928;7.172;2023-04-20T15:30:58;9.20;42.10
12849;DHT22;6493;50.928;7.172;2023-04-20T15:36:01;9.30;41.70
12849;DHT22;6493;50.928;7.172;2023-04-20T15:47:50;9.20;40.30
12849;DHT22;6493;50.928;7.172;2023-04-20T15:52:54;9.10;40.40
12849;DHT22;6493;50.928;7.172;2023-04-20T15:57:57;9.00;40.60
12849;DHT22;6493;50.928;7.172;2023-04-20T16:03:02;9.00;40.80
12849;DHT22;6493;50.928;7.172;2023-04-20T16:08:06;9.00;41.20
12849;DHT22;6493;50.928;7.172;2023-04-20T16:13:09;9.00;40.80
12849;DHT22;6493;50.928;7.172;2023-04-20T16:18:14;9.10;40.90
12849;DHT22;6493;50.928;7.172;2023-04-20T16:23:17;9.00;40.60
12849;DHT22;6493;50.928;7.172;2023-04-20T16:28:20;9.00;40.50
12849;DHT22;6493;50.928;7.172;2023-04-20T16:33:25;8.90;40.00
12849;DHT22;6493;50.928;7.172;2023-04-20T16:38:28;8.80;41.00
12849;DHT22;6493;50.928;7.172;2023-04-20T16:43:31;8.50;42.20
12849;DHT22;6493;50.928;7.172;2023-04-20T16:48:36;8.40;42.10
12849;DHT22;6493;50.928;7.172;2023-04-20T16:53:39;8.10;42.80
12849;DHT22;6493;50.928;7.172;2023-04-20T16:58:42;7.90;44.30
12849;DHT22;6493;50.928;7.172;2023-04-20T17:03:46;7.70;44.10
12849;DHT22;6493;50.928;7.172;2023-04-20T17:08:50;7.50;44.70
12849;DHT22;6493;50.928;7.172;2023-04-20T17:13:56;7.30;44.80
12849;DHT22;6493;50.928;7.172;2023-04-20T17:19:01;7.20;44.80
12849;DHT22;6493;50.928;7.172;2023-04-20T17:24:04;7.20;45.50
12849;DHT22;6493;50.928;7.172;2023-04-20T17:29:31;7.10;45.70
12849;DHT22;6493;50.928;7.172;2023-04-20T17:34:41;7.00;46.40
12849;DHT22;6493;50.928;7.172;2023-04-20T17:39:45;6.80;46.60
12849;DHT22;6493;50.928;7.172;2023-04-20T17:44:48;6.60;45.70
12849;DHT22;6493;50.928;7.172;2023-04-20T17:49:53;6.40;46.50
12849;DHT22;6493;50.928;7.172;2023-04-20T17:54:56;6.30;46.90
12849;DHT22;6493;50.928;7.172;2023-04-20T18:00:00;6.10;46.50
12849;DHT22;6493;50.928;7.172;2023-04-20T18:05:13;6.00;46.90
12849;DHT22;6493;50.928;7.172;2023-04-20T18:10:18;6.00;46.40
12849;DHT22;6493;50.928;7.172;2023-04-20T18:15:21;5.90;47.10
12849;DHT22;6493;50.928;7.172;2023-04-20T18:20:25;5.90;47.00
12849;DHT22;6493;50.928;7.172;2023-04-20T18:25:31;5.90;46.80
12849;DHT22;6493;50.928;7.172;2023-04-20T18:30:35;5.90;47.10
12849;DHT22;6493;50.928;7.172;2023-04-20T18:35:39;5.90;47.00
12849;DHT22;6493;50.928;7.172;2023-04-20T18:40:43;5.90;47.00
12849;DHT22;6493;50.928;7.172;2023-04-20T18:45:46;6.00;46.80
12849;DHT22;6493;50.928;7.172;2023-04-20T18:50:51;6.00;46.70
12849;DHT22;6493;50.928;7.172;2023-04-20T18:55:54;6.00;46.60
12849;DHT22;6493;50.928;7.172;2023-04-20T19:00:59;6.00;46.70
12849;DHT22;6493;50.928;7.172;2023-04-20T19:06:05;6.00;46.80
12849;DHT22;6493;50.928;7.172;2023-04-20T19:11:08;6.00;46.50
12849;DHT22;6493;50.928;7.172;2023-04-20T19:16:12;6.00;46.40
12849;DHT22;6493;50.928;7.172;2023-04-20T19:21:16;5.90;46.50
12849;DHT22;6493;50.928;7.172;2023-04-20T19:26:22;5.90;46.70
12849;DHT22;6493;50.928;7.172;2023-04-20T19:31:26;5.90;46.80
12849;DHT22;6493;50.928;7.172;2023-04-20T19:36:36;5.90;47.00
12849;DHT22;6493;50.928;7.172;2023-04-20T19:41:39;5.90;47.40
12849;DHT22;6493;50.928;7.172;2023-04-20T19:46:42;5.80;46.90
12849;DHT22;6493;50.928;7.172;2023-04-20T19:51:46;5.80;46.90
12849;DHT22;6493;50.928;7.172;2023-04-20T19:56:49;5.80;46.90
12849;DHT22;6493;50.928;7.172;2023-04-20T20:01:53;5.70;47.10
12849;DHT22;6493;50.928;7.172;2023-04-20T20:06:58;5.70;47.00
12849;DHT22;6493;50.928;7.172;2023-04-20T20:12:02;5.60;47.30
12849;DHT22;6493;50.928;7.172;2023-04-20T20:17:08;5.60;47.40
12849;DHT22;6493;50.928;7.172;2023-04-20T20:22:13;5.50;47.30
12849;DHT22;6493;50.928;7.172;2023-04-20T20:27:16;5.40;48.00
12849;DHT22;6493;50.928;7.172;2023-04-20T20:32:19;5.30;48.60
12849;DHT22;6493;50.928;7.172;2023-04-20T20:37:24;5.20;49.80
12849;DHT22;6493;50.928;7.172;2023-04-20T20:42:27;5.10;50.60
12849;DHT22;6493;50.928;7.172;2023-04-20T20:47:31;4.90;51.90
12849;DHT22;6493;50.928;7.172;2023-04-20T20:52:36;4.80;51.20
12849;DHT22;6493;50.928;7.172;2023-04-20T20:57:40;4.70;51.60
12849;DHT22;6493;50.928;7.172;2023-04-20T21:02:43;4.70;51.70
12849;DHT22;6493;50.928;7.172;2023-04-20T21:07:49;4.70;51.40
12849;DHT22;6493;50.928;7.172;2023-04-20T21:12:52;4.60;51.90
12849;DHT22;6493;50.928;7.172;2023-04-20T21:17:55;4.60;52.50
12849;DHT22;6493;50.928;7.172;2023-04-20T21:22:59;4.50;52.50
12849;DHT22;6493;50.928;7.172;2023-04-20T21:28:03;4.50;52.60
12849;DHT22;6493;50.928;7.172;2023-04-20T21:33:06;4.40;52.10
12849;DHT22;6493;50.928;7.172;2023-04-20T21:38:11;4.40;52.10
12849;DHT22;6493;50.928;7.172;2023-04-20T21:43:14;4.30;51.30
12849;DHT22;6493;50.928;7.172;2023-04-20T21:48:17;4.40;51.60
12849;DHT22;6493;50.928;7.172;2023-04-20T21:53:22;4.40;50.90
12849;DHT22;6493;50.928;7.172;2023-04-20T21:58:25;4.50;51.30
12849;DHT22;6493;50.928;7.172;2023-04-20T22:03:28;4.50;51.00
12849;DHT22;6493;50.928;7.172;2023-04-20T22:08:33;4.50;51.00
12849;DHT22;6493;50.928;7.172;2023-04-20T22:13:40;4.50;51.00
12849;DHT22;6493;50.928;7.172;2023-04-20T22:18:43;4.50;50.80
12849;DHT22;6493;50.928;7.172;2023-04-20T22:23:47;4.60;50.80
12849;DHT22;6493;50.928;7.172;2023-04-20T22:28:51;4.60;50.80
12849;DHT22;6493;50.928;7.172;2023-04-20T22:33:54;4.70;50.90
12849;DHT22;6493;50.928;7.172;2023-04-20T22:38:58;4.70;51.10
12849;DHT22;6493;50.928;7.172;2023-04-20T22:44:02;4.70;50.80
12849;DHT22;6493;50.928;7.172;2023-04-20T22:49:05;4.70;51.30
12849;DHT22;6493;50.928;7.172;2023-04-20T22:54:10;4.70;51.30
12849;DHT22;6493;50.928;7.172;2023-04-20T22:59:14;4.60;51.10
12849;DHT22;6493;50.928;7.172;2023-04-20T23:04:17;4.60;51.00
12849;DHT22;6493;50.928;7.172;2023-04-20T23:09:22;4.60;51.00
12849;DHT22;6493;50.928;7.172;2023-04-20T23:14:25;4.60;51.00
12849;DHT22;6493;50.928;7.172;2023-04-20T23:19:28;4.60;51.00
12849;DHT22;6493;50.928;7.172;2023-04-20T23:24:35;4.70;51.10
12849;DHT22;6493;50.928;7.172;2023-04-20T23:29:38;4.70;51.00
12849;DHT22;6493;50.928;7.172;2023-04-20T23:34:42;4.70;51.40
12849;DHT22;6493;50.928;7.172;2023-04-20T23:39:46;4.70;51.10
12849;DHT22;6493;50.928;7.172;2023-04-20T23:44:49;4.70;52.00
12849;DHT22;6493;50.928;7.172;2023-04-20T23:49:52;4.60;51.50
12849;DHT22;6493;50.928;7.172;2023-04-20T23:54:57;4.60;51.50
